Time;durP1;ratioP1;P1;durP2;ratioP2;P2;SDS_P1;SDS_P2;PMS_P1;PMS_P2;Temp;Humidity;BMP_temperature;BMP_pressure;BME280_temperature;BME280_humidity;BME280_pressure;Samples;Min_cycle;Max_cycle;Signal;HPM_P1;HPM_P2
2021/03/10 07:33:21;;;;;;;32.25;18.02;;;;;;;-3.39;65.61;98472.37;1877168;75;29122;-59
2021/03/10 07:36:03;;;;;;;17.05;10.28;;;;;;;-3.44;65.67;98478.17;1793515;79;21868;-59
2021/03/10 07:38:40;;;;;;;13.15;9.23;;;;;;;-3.31;65.72;98483.50;1770395;81;22106;-56
2021/03/10 07:41:14;;;;;;;20.05;12.15;;;;;;;-3.21;65.59;98483.98;1772845;80;21013;-60
2021/03/10 07:43:48;;;;;;;24.65;14.00;;;;;;;-3.11;65.46;98473.95;1796900;79;21001;-58
2021/03/10 07:46:33;;;;;;;28.57;16.00;;;;;;;-3.01;65.45;98477.05;1794427;79;21032;-61
2021/03/10 07:49:18;;;;;;;20.97;14.45;;;;;;;-2.90;65.34;98473.89;1784979;79;21032;-56
2021/03/10 07:51:50;;;;;;;16.35;11.78;;;;;;;-2.77;65.27;98479.22;1770537;81;21605;-58
2021/03/10 07:54:25;;;;;;;19.23;11.63;;;;;;;-2.68;65.09;98475.92;1771134;81;20956;-62
2021/03/10 07:57:13;;;;;;;15.80;10.95;;;;;;;-2.60;64.91;98470.53;1771878;81;20997;-63
2021/03/10 07:59:58;;;;;;;18.62;11.57;;;;;;;-2.51;64.84;98477.72;1790623;79;21039;-58
2021/03/10 08:02:31;;;;;;;15.93;10.03;;;;;;;-2.40;64.57;98475.88;1790215;80;21601;-58
2021/03/10 08:05:24;;;;;;;16.65;8.78;;;;;;;-2.32;64.40;98475.68;1758128;81;21382;-59
2021/03/10 08:08:13;;;;;;;13.40;8.45;;;;;;;-2.25;64.37;98476.52;1776550;80;21029;-63
2021/03/10 08:10:43;;;;;;;13.03;8.85;;;;;;;-2.12;64.28;98469.48;1790557;79;21017;-56
2021/03/10 08:13:20;;;;;;;18.02;11.83;;;;;;;-2.03;64.12;98467.50;1818652;79;21813;-62
2021/03/10 08:15:49;;;;;;;13.93;10.35;;;;;;;-1.95;64.12;98464.67;1810974;79;21421;-60
2021/03/10 08:18:21;;;;;;;19.95;10.98;;;;;;;-1.88;64.01;98465.49;1806774;79;21837;-60
2021/03/10 08:20:50;;;;;;;15.60;9.73;;;;;;;-1.78;63.98;98459.85;1793972;79;20906;-63
2021/03/10 08:23:19;;;;;;;14.13;10.18;;;;;;;-1.67;63.96;98470.57;1791050;79;21083;-62
2021/03/10 08:25:52;;;;;;;14.95;10.40;;;;;;;-1.63;63.89;98466.55;1792268;79;21071;-58
2021/03/10 08:28:24;;;;;;;22.37;11.35;;;;;;;-1.61;63.80;98462.41;1780266;79;21543;-61
2021/03/10 08:30:52;;;;;;;14.07;9.43;;;;;;;-1.51;63.65;98457.56;1787730;79;21379;-62
2021/03/10 08:33:21;;;;;;;13.45;9.35;;;;;;;-1.44;63.46;98461.00;1696602;82;21502;-59
2021/03/10 08:35:49;;;;;;;11.48;8.43;;;;;;;-1.40;63.39;98457.77;1820310;78;21608;-63
2021/03/10 08:38:17;;;;;;;10.20;8.20;;;;;;;-1.33;63.46;98459.56;1806046;79;21592;-63
2021/03/10 08:40:46;;;;;;;13.58;8.73;;;;;;;-1.27;63.36;98466.66;1782091;80;21249;-62
2021/03/10 08:43:21;;;;;;;13.68;9.10;;;;;;;-1.20;63.29;98460.36;1781916;80;21327;-64
2021/03/10 08:45:49;;;;;;;14.20;9.65;;;;;;;-1.07;63.39;98467.43;1799029;79;21046;-59
2021/03/10 08:48:17;;;;;;;16.25;9.45;;;;;;;-0.92;63.27;98462.77;1786285;79;21169;-63
2021/03/10 08:50:47;;;;;;;12.00;9.15;;;;;;;-0.83;63.22;98458.89;1760062;81;21179;-62
2021/03/10 08:53:15;;;;;;;12.63;9.18;;;;;;;-0.73;63.17;98460.59;1801705;79;21206;-59
2021/03/10 08:55:46;;;;;;;12.82;9.85;;;;;;;-0.62;62.89;98462.58;1780726;80;22580;-64
2021/03/10 08:58:18;;;;;;;12.75;9.03;;;;;;;-0.54;62.62;98457.59;1816792;78;21200;-64
2021/03/10 09:00:48;;;;;;;12.95;9.25;;;;;;;-0.53;62.71;98452.11;1811152;79;21591;-59
2021/03/10 09:03:18;;;;;;;12.50;9.40;;;;;;;-0.51;62.74;98459.80;1811900;79;21563;-59
2021/03/10 09:05:51;;;;;;;13.65;8.90;;;;;;;-0.55;62.48;98458.60;1811372;79;21140;-60
2021/03/10 09:08:23;;;;;;;9.65;7.92;;;;;;;-0.65;62.49;98464.30;1812145;79;21371;-62
2021/03/10 09:10:54;;;;;;;14.25;9.73;;;;;;;-0.69;62.68;98457.84;1812593;79;20999;-63
2021/03/10 09:13:47;;;;;;;14.73;10.28;;;;;;;-0.63;62.87;98457.00;1866794;76;28465;-62
2021/03/10 09:16:17;;;;;;;18.65;13.43;;;;;;;-0.72;62.93;98452.98;1841858;77;22070;-59
2021/03/10 09:19:01;;;;;;;16.07;11.40;;;;;;;-0.72;63.48;98459.06;1816096;77;20997;-61
2021/03/10 09:21:40;;;;;;;23.87;15.72;;;;;;;-0.61;63.68;98462.08;1810650;79;21037;-60
2021/03/10 09:24:10;;;;;;;26.95;15.63;;;;;;;-0.52;63.63;98460.83;1772344;80;21575;-58
2021/03/10 09:26:41;;;;;;;23.95;15.25;;;;;;;-0.47;63.70;98464.42;1766009;80;21001;-62
2021/03/10 09:29:10;;;;;;;21.52;14.33;;;;;;;-0.39;63.92;98458.12;1729602;81;21595;-59
2021/03/10 09:31:41;;;;;;;23.98;14.33;;;;;;;-0.36;63.93;98449.32;1773427;80;21612;-58
2021/03/10 09:34:09;;;;;;;21.77;13.32;;;;;;;-0.29;64.25;98457.99;1702495;81;21651;-61
2021/03/10 09:36:41;;;;;;;18.82;12.35;;;;;;;-0.16;64.45;98455.28;1726775;81;21621;-63
2021/03/10 09:39:14;;;;;;;22.35;12.58;;;;;;;-0.10;63.85;98447.88;1750602;81;21188;-56
2021/03/10 09:41:53;;;;;;;26.68;17.77;;;;;;;-0.01;63.58;98462.41;1877281;76;22608;-58
2021/03/10 09:44:23;;;;;;;14.90;10.63;;;;;;;-0.10;63.17;98458.41;1850115;77;21159;-58
2021/03/10 09:46:51;;;;;;;17.27;11.83;;;;;;;-0.15;63.14;98457.41;1816068;77;22503;-58
2021/03/10 09:49:22;;;;;;;13.93;10.43;;;;;;;-0.15;63.34;98454.78;1852376;77;20915;-59
2021/03/10 09:51:51;;;;;;;14.30;9.98;;;;;;;-0.15;63.24;98456.09;1855170;76;21157;-60
2021/03/10 09:54:22;;;;;;;14.83;10.95;;;;;;;-0.18;63.33;98453.37;1864321;76;21004;-56
2021/03/10 09:56:55;;;;;;;14.75;9.85;;;;;;;-0.17;63.16;98462.09;1858032;77;20981;-61
2021/03/10 09:59:34;;;;;;;13.53;10.32;;;;;;;-0.30;62.93;98465.58;1851680;75;21472;-58
2021/03/10 10:02:10;;;;;;;13.65;9.20;;;;;;;-0.35;63.18;98460.63;1779928;79;21532;-55
2021/03/10 10:05:03;;;;;;;20.45;12.33;;;;;;;-0.34;63.29;98452.55;1798546;79;21034;-58
2021/03/10 10:07:33;;;;;;;16.02;11.45;;;;;;;-0.23;63.32;98459.77;1775242;78;21589;-62
2021/03/10 10:10:06;;;;;;;14.93;10.68;;;;;;;-0.23;62.94;98457.14;1781649;80;21183;-60
2021/03/10 10:12:45;;;;;;;12.73;10.25;;;;;;;-0.28;63.22;98457.46;1826018;78;21584;-59
2021/03/10 10:15:17;;;;;;;16.35;11.05;;;;;;;-0.22;63.17;98452.19;1799117;79;21179;-61
2021/03/10 10:17:50;;;;;;;13.78;10.50;;;;;;;-0.14;63.24;98456.38;1775176;79;21611;-61
2021/03/10 10:20:22;;;;;;;15.53;11.03;;;;;;;-0.07;63.05;98454.52;1781628;80;21555;-61
2021/03/10 10:22:50;;;;;;;15.75;10.55;;;;;;;-0.07;62.89;98450.56;1795141;78;21560;-58
2021/03/10 10:25:47;;;;;;;11.68;9.05;;;;;;;-0.04;62.92;98454.92;1831485;78;20998;-59
2021/03/10 10:28:16;;;;;;;15.90;10.43;;;;;;;0.06;62.77;98454.45;1799002;79;21614;-61
2021/03/10 10:30:44;;;;;;;10.48;8.65;;;;;;;0.08;62.67;98459.00;1802007;79;21483;-63
2021/03/10 10:33:13;;;;;;;11.28;9.33;;;;;;;0.12;62.59;98458.86;1772645;81;21487;-60
2021/03/10 10:35:45;;;;;;;10.80;9.00;;;;;;;0.16;62.38;98460.58;1772277;81;20932;-59
2021/03/10 10:38:16;;;;;;;13.18;9.68;;;;;;;0.11;62.29;98458.59;1770034;79;22194;-62
2021/03/10 10:40:44;;;;;;;15.93;12.60;;;;;;;-0.01;62.54;98458.45;1791749;79;21047;-58
2021/03/10 10:43:15;;;;;;;13.68;10.63;;;;;;;-0.07;63.12;98462.41;1798040;79;21453;-59
2021/03/10 10:45:45;;;;;;;13.10;10.08;;;;;;;-0.03;63.56;98460.50;1747737;81;21046;-62
2021/03/10 10:48:13;;;;;;;24.45;16.93;;;;;;;0.08;63.42;98449.78;1759795;80;21165;-62
2021/03/10 10:50:52;;;;;;;16.32;12.47;;;;;;;0.13;63.30;98451.78;1784506;79;22105;-61
2021/03/10 10:53:20;;;;;;;28.55;16.02;;;;;;;0.10;63.69;98442.47;1833230;76;21715;-61
2021/03/10 10:55:49;;;;;;;32.83;19.40;;;;;;;0.15;63.91;98443.15;1842658;76;22172;-58
2021/03/10 10:58:18;;;;;;;19.82;15.30;;;;;;;0.28;64.10;98440.44;1789314;80;21557;-59
2021/03/10 11:00:46;;;;;;;28.45;18.07;;;;;;;0.34;64.13;98452.75;1847961;76;21599;-62
2021/03/10 11:03:15;;;;;;;25.57;15.43;;;;;;;0.41;64.20;98438.51;1779010;80;22607;-59
2021/03/10 11:05:46;;;;;;;15.83;11.08;;;;;;;0.51;64.19;98440.16;1847496;77;21047;-61
2021/03/10 11:08:15;;;;;;;20.12;13.45;;;;;;;0.60;63.60;98437.55;1849075;76;21122;-61
2021/03/10 11:10:44;;;;;;;18.37;10.20;;;;;;;0.57;63.63;98441.11;1770117;79;21640;-57
2021/03/10 11:13:13;;;;;;;21.68;14.63;;;;;;;0.55;63.16;98433.43;1790958;79;21110;-60
2021/03/10 11:15:43;;;;;;;19.80;14.80;;;;;;;0.61;63.62;98438.36;1789902;80;21990;-65
2021/03/10 11:18:22;;;;;;;16.67;12.50;;;;;;;0.81;63.87;98437.66;1791464;79;21478;-65
2021/03/10 11:20:52;;;;;;;22.77;16.17;;;;;;;1.00;63.47;98427.94;1734045;79;21359;-62
2021/03/10 11:23:20;;;;;;;16.65;11.30;;;;;;;1.09;63.46;98424.80;1777814;79;21063;-59
2021/03/10 11:25:48;;;;;;;12.40;10.20;;;;;;;1.16;63.10;98426.85;1771255;79;21294;-64
2021/03/10 11:28:18;;;;;;;15.30;10.03;;;;;;;1.22;62.48;98419.40;1801232;79;21362;-62
2021/03/10 11:30:47;;;;;;;12.25;9.53;;;;;;;1.15;61.94;98419.98;1802533;79;21000;-59
2021/03/10 11:33:17;;;;;;;16.45;12.82;;;;;;;0.97;61.90;98412.03;1776196;79;21507;-58
2021/03/10 11:35:46;;;;;;;12.88;9.70;;;;;;;0.85;62.69;98409.04;1770582;81;21203;-64
2021/03/10 11:38:16;;;;;;;14.80;10.65;;;;;;;0.68;62.08;98409.58;1770765;81;21139;-62
2021/03/10 11:40:46;;;;;;;18.48;12.37;;;;;;;0.49;62.95;98410.58;1777708;77;21210;-61
2021/03/10 11:43:16;;;;;;;15.10;11.55;;;;;;;0.47;63.09;98415.77;1777557;79;21093;-57
2021/03/10 11:45:45;;;;;;;15.30;11.25;;;;;;;0.36;63.54;98410.67;1781032;79;20937;-57
2021/03/10 11:48:14;;;;;;;14.87;11.38;;;;;;;0.28;63.80;98408.32;1799598;78;21160;-60
2021/03/10 11:50:43;;;;;;;18.75;12.75;;;;;;;0.33;64.19;98410.31;1872041;76;21062;-61
2021/03/10 11:53:11;;;;;;;14.73;11.60;;;;;;;0.38;64.50;98413.08;1790047;80;22046;-62
2021/03/10 11:55:40;;;;;;;17.98;13.05;;;;;;;0.40;64.36;98412.38;1836462;76;21484;-61
2021/03/10 11:58:07;;;;;;;15.08;11.60;;;;;;;0.39;64.54;98414.70;1809201;78;21516;-61
2021/03/10 12:00:39;;;;;;;15.08;11.48;;;;;;;0.40;64.67;98408.43;1833053;78;21565;-59
2021/03/10 12:03:10;;;;;;;15.00;10.58;;;;;;;0.45;64.68;98411.20;1806791;79;21137;-57
2021/03/10 12:05:48;;;;;;;12.60;9.50;;;;;;;0.46;64.72;98410.19;1807032;79;21195;-61
2021/03/10 12:08:19;;;;;;;13.18;10.85;;;;;;;0.42;65.02;98405.88;1800006;79;21613;-59
2021/03/10 12:10:51;;;;;;;14.73;11.65;;;;;;;0.45;65.36;98408.06;1799558;79;21063;-60
2021/03/10 12:13:19;;;;;;;18.37;11.75;;;;;;;0.48;65.56;98410.77;1799433;79;21183;-63
2021/03/10 12:15:47;;;;;;;14.80;11.12;;;;;;;0.48;65.63;98409.45;1799473;79;21598;-62
2021/03/10 12:18:17;;;;;;;11.53;10.32;;;;;;;0.53;65.86;98410.44;1799735;78;21883;-59
2021/03/10 12:20:47;;;;;;;11.88;9.60;;;;;;;0.63;65.89;98402.04;1834711;77;21205;-60
2021/03/10 12:23:16;;;;;;;12.93;10.15;;;;;;;0.56;65.76;98409.20;1813251;78;21563;-60
2021/03/10 12:25:46;;;;;;;15.25;10.82;;;;;;;0.45;66.09;98409.88;1839507;78;21931;-63
2021/03/10 12:28:14;;;;;;;13.18;10.70;;;;;;;0.40;66.61;98404.47;1839636;78;21553;-57
2021/03/10 12:30:41;;;;;;;12.80;10.25;;;;;;;0.43;66.93;98407.97;1840483;77;22073;-60
2021/03/10 12:33:11;;;;;;;12.80;10.05;;;;;;;0.47;67.21;98410.50;1825912;78;21591;-58
2021/03/10 12:35:41;;;;;;;13.22;9.90;;;;;;;0.47;67.08;98406.55;1829410;78;21552;-62
2021/03/10 12:38:10;;;;;;;10.38;8.45;;;;;;;0.47;67.41;98402.59;1840084;77;21129;-61
2021/03/10 12:40:40;;;;;;;10.13;8.63;;;;;;;0.46;67.34;98408.87;1830458;77;21142;-60
2021/03/10 12:43:09;;;;;;;10.53;9.28;;;;;;;0.46;67.54;98404.92;1830915;77;22451;-62
2021/03/10 12:45:38;;;;;;;13.25;10.00;;;;;;;0.48;67.59;98403.69;1817551;77;21128;-63
2021/03/10 12:48:09;;;;;;;12.98;11.22;;;;;;;0.47;67.55;98407.86;1849608;76;21517;-62
2021/03/10 12:50:37;;;;;;;13.45;11.25;;;;;;;0.42;67.72;98408.51;1785728;80;21163;-63
2021/03/10 12:53:06;;;;;;;11.22;9.90;;;;;;;0.41;67.89;98407.39;1760801;81;21826;-61
2021/03/10 12:55:37;;;;;;;11.20;8.88;;;;;;;0.41;67.83;98406.88;1741070;80;21226;-59
2021/03/10 12:58:06;;;;;;;14.40;10.68;;;;;;;0.40;67.99;98411.06;1814793;79;21223;-61
2021/03/10 13:00:34;;;;;;;10.13;8.35;;;;;;;0.35;67.91;98412.22;1814847;79;21592;-61
2021/03/10 13:03:03;;;;;;;16.00;10.75;;;;;;;0.29;67.84;98401.20;1815037;79;21576;-58
2021/03/10 13:05:32;;;;;;;15.25;11.28;;;;;;;0.22;68.00;98403.08;1822537;77;21511;-60
2021/03/10 13:08:02;;;;;;;14.83;11.70;;;;;;;0.14;68.31;98411.26;1817161;77;21360;-62
2021/03/10 13:10:31;;;;;;;14.28;10.53;;;;;;;0.11;68.54;98405.09;1816055;79;21552;-60
2021/03/10 13:13:03;;;;;;;13.68;10.40;;;;;;;0.16;68.55;98407.89;1812765;79;20959;-63
2021/03/10 13:15:32;;;;;;;13.58;10.78;;;;;;;0.19;68.60;98405.63;1836699;76;20965;-61
2021/03/10 13:18:00;;;;;;;14.98;11.73;;;;;;;0.21;68.67;98410.70;1853190;76;21163;-61
2021/03/10 13:20:29;;;;;;;11.75;8.13;;;;;;;0.24;68.72;98405.80;1851723;77;22099;-57
2021/03/10 13:22:57;;;;;;;12.55;10.13;;;;;;;0.26;68.70;98402.43;1851301;77;21194;-58
2021/03/10 13:25:26;;;;;;;11.90;9.80;;;;;;;0.26;68.72;98404.28;1851598;77;21593;-58
2021/03/10 13:27:54;;;;;;;14.75;11.10;;;;;;;0.26;68.64;98402.43;1851776;77;21438;-63
2021/03/10 13:30:24;;;;;;;119.67;90.22;;;;;;;0.27;68.56;98405.88;1845996;77;21582;-65
2021/03/10 13:32:52;;;;;;;20.17;14.60;;;;;;;0.31;68.53;98402.59;1833333;77;21330;-64
2021/03/10 13:35:21;;;;;;;16.42;12.25;;;;;;;0.38;68.56;98406.48;1826246;77;21619;-61
2021/03/10 13:37:49;;;;;;;15.90;11.48;;;;;;;0.44;68.63;98408.28;1815194;79;21479;-62
2021/03/10 13:40:19;;;;;;;18.92;13.55;;;;;;;0.54;68.47;98405.98;1815968;78;21010;-61
2021/03/10 13:42:47;;;;;;;14.85;12.28;;;;;;;0.63;68.34;98406.80;1811968;76;21221;-68
2021/03/10 13:45:17;;;;;;;24.32;18.15;;;;;;;0.70;68.24;98412.02;1771417;80;23499;-65
2021/03/10 13:47:46;;;;;;;14.00;9.73;;;;;;;0.76;68.18;98407.17;1794050;80;21600;-61
2021/03/10 13:50:14;;;;;;;16.02;11.78;;;;;;;0.76;67.87;98405.86;1788686;80;21184;-59
2021/03/10 13:52:43;;;;;;;15.32;11.25;;;;;;;0.68;67.84;98406.16;1741161;81;21203;-64
2021/03/10 13:55:12;;;;;;;15.05;11.65;;;;;;;0.66;68.04;98406.34;1770083;80;21624;-55
2021/03/10 13:57:43;;;;;;;10.03;8.33;;;;;;;0.65;68.06;98414.48;1767373;80;21794;-58
2021/03/10 14:00:14;;;;;;;15.83;9.68;;;;;;;0.55;67.94;98407.57;1800616;79;21547;-60
2021/03/10 14:02:43;;;;;;;9.75;8.15;;;;;;;0.49;68.23;98409.77;1808791;78;21010;-59
2021/03/10 14:05:12;;;;;;;10.68;8.65;;;;;;;0.48;68.31;98412.91;1805740;79;21228;-54
2021/03/10 14:07:41;;;;;;;11.33;9.23;;;;;;;0.50;68.44;98408.73;1806767;79;21560;-60
2021/03/10 14:10:11;;;;;;;13.05;10.38;;;;;;;0.46;68.46;98410.19;1805455;79;21203;-62
2021/03/10 14:12:42;;;;;;;9.98;8.90;;;;;;;0.42;68.62;98407.19;1806116;79;21201;-61
2021/03/10 14:15:12;;;;;;;11.25;9.70;;;;;;;0.42;68.55;98415.09;1807031;79;21165;-57
2021/03/10 14:17:43;;;;;;;11.50;9.65;;;;;;;0.41;68.66;98401.61;1810001;78;21536;-61
2021/03/10 14:20:13;;;;;;;13.30;10.45;;;;;;;0.41;68.66;98402.12;1829809;78;21161;-60
2021/03/10 14:22:42;;;;;;;14.78;11.25;;;;;;;0.37;68.75;98400.94;1829448;78;21185;-61
2021/03/10 14:25:12;;;;;;;12.88;11.08;;;;;;;0.36;68.96;98400.63;1763230;80;21665;-63
2021/03/10 14:27:40;;;;;;;11.55;9.70;;;;;;;0.35;69.10;98405.63;1793477;80;21186;-60
2021/03/10 14:30:11;;;;;;;13.40;10.00;;;;;;;0.34;69.15;98399.55;1791538;78;21597;-57
2021/03/10 14:32:40;;;;;;;14.38;10.32;;;;;;;0.30;69.24;98405.45;1727921;83;21601;-61
2021/03/10 14:35:18;;;;;;;15.25;10.72;;;;;;;0.25;69.29;98402.66;1755669;81;21628;-62
2021/03/10 14:37:47;;;;;;;21.27;13.78;;;;;;;0.23;69.43;98403.39;1728812;83;21091;-58
2021/03/10 14:40:16;;;;;;;17.25;12.78;;;;;;;0.25;69.59;98402.66;1756347;81;21481;-62
2021/03/10 14:42:45;;;;;;;14.03;10.98;;;;;;;0.23;69.58;98404.70;1751107;81;20943;-61
2021/03/10 14:45:15;;;;;;;11.53;10.28;;;;;;;0.24;69.71;98407.61;1750955;80;21142;-60
2021/03/10 14:47:43;;;;;;;14.47;11.12;;;;;;;0.21;69.78;98404.92;1801853;78;22094;-61
2021/03/10 14:50:12;;;;;;;11.45;9.08;;;;;;;0.17;69.82;98413.44;1790912;80;21493;-61
2021/03/10 14:52:41;;;;;;;10.60;9.10;;;;;;;0.17;69.94;98398.95;1791140;80;21453;-60
2021/03/10 14:55:10;;;;;;;10.95;9.00;;;;;;;0.18;70.01;98411.12;1791007;80;21579;-61
2021/03/10 14:57:41;;;;;;;9.65;8.30;;;;;;;0.16;70.02;98403.94;1790878;79;21583;-60
2021/03/10 15:00:13;;;;;;;12.30;9.25;;;;;;;0.07;69.79;98406.55;1791011;79;22161;-58
2021/03/10 15:02:41;;;;;;;14.53;9.10;;;;;;;-0.06;70.00;98412.19;1790939;80;21117;-62
2021/03/10 15:05:12;;;;;;;12.82;9.43;;;;;;;-0.14;70.21;98405.84;1789639;79;21010;-58
2021/03/10 15:07:40;;;;;;;11.73;8.33;;;;;;;-0.11;70.41;98405.44;1798559;79;20978;-62
2021/03/10 15:10:11;;;;;;;13.60;9.10;;;;;;;-0.09;70.27;98398.13;1784956;80;21555;-61
2021/03/10 15:12:40;;;;;;;15.43;11.15;;;;;;;-0.11;70.41;98403.30;1784943;80;21365;-63
2021/03/10 15:15:11;;;;;;;11.85;10.35;;;;;;;-0.09;70.51;98407.34;1768633;80;21515;-59
2021/03/10 15:17:39;;;;;;;12.60;9.20;;;;;;;-0.09;70.53;98398.63;1763520;80;21026;-59
2021/03/10 15:20:09;;;;;;;13.18;9.68;;;;;;;-0.13;70.16;98404.84;1785268;80;21574;-58
2021/03/10 15:22:40;;;;;;;12.33;9.85;;;;;;;-0.20;70.25;98409.84;1785300;80;21156;-64
2021/03/10 15:25:09;;;;;;;13.85;11.12;;;;;;;-0.28;70.01;98402.18;1784851;80;21403;-61
2021/03/10 15:27:38;;;;;;;16.10;12.15;;;;;;;-0.33;70.05;98408.08;1784704;80;20982;-63
2021/03/10 15:30:10;;;;;;;15.58;11.33;;;;;;;-0.33;70.13;98415.98;1784914;80;21088;-59
2021/03/10 15:32:38;;;;;;;11.88;9.93;;;;;;;-0.33;70.10;98418.61;1784636;80;20974;-61
2021/03/10 15:35:08;;;;;;;12.80;11.03;;;;;;;-0.39;70.04;98418.14;1784881;80;21022;-62
2021/03/10 15:37:36;;;;;;;13.88;11.05;;;;;;;-0.41;70.01;98420.69;1785056;80;22248;-62
2021/03/10 15:40:14;;;;;;;12.13;10.28;;;;;;;-0.43;70.08;98427.48;1784792;80;21504;-63
2021/03/10 15:42:42;;;;;;;12.13;10.45;;;;;;;-0.45;70.07;98428.20;1787249;79;21089;-58
2021/03/10 15:45:12;;;;;;;10.82;9.65;;;;;;;-0.54;70.28;98430.75;1789378;80;21601;-57
2021/03/10 15:47:39;;;;;;;14.25;10.40;;;;;;;-0.56;70.35;98431.47;1789326;80;21037;-62
2021/03/10 15:50:09;;;;;;;13.85;10.88;;;;;;;-0.57;70.42;98429.88;1789261;80;22208;-62
2021/03/10 15:52:38;;;;;;;14.95;12.63;;;;;;;-0.58;70.56;98428.25;1789236;80;21049;-62
2021/03/10 15:55:08;;;;;;;15.55;12.58;;;;;;;-0.61;70.68;98431.28;1789411;80;21188;-62
2021/03/10 15:57:36;;;;;;;13.70;10.45;;;;;;;-0.58;70.82;98430.87;1789318;80;21087;-65
2021/03/10 16:00:08;;;;;;;15.15;11.60;;;;;;;-0.55;70.90;98430.47;1789376;80;21500;-62
2021/03/10 16:02:36;;;;;;;12.93;10.72;;;;;;;-0.53;71.02;98432.88;1789278;80;21356;-61
2021/03/10 16:05:09;;;;;;;13.10;10.18;;;;;;;-0.56;71.12;98431.47;1789360;80;20970;-63
2021/03/10 16:07:37;;;;;;;15.10;10.75;;;;;;;-0.57;71.17;98429.06;1789222;80;20993;-63
2021/03/10 16:10:08;;;;;;;13.78;10.90;;;;;;;-0.56;71.16;98431.47;1789235;80;21049;-62
2021/03/10 16:12:39;;;;;;;15.23;10.72;;;;;;;-0.55;71.14;98430.47;1789253;80;21168;-61
2021/03/10 16:15:10;;;;;;;13.90;9.40;;;;;;;-0.55;71.20;98427.02;1789359;80;22182;-59
2021/03/10 16:17:39;;;;;;;12.23;9.90;;;;;;;-0.61;71.20;98428.66;1789167;80;21037;-62
2021/03/10 16:20:08;;;;;;;13.03;9.50;;;;;;;-0.68;71.29;98434.45;1789229;80;21025;-63
2021/03/10 16:22:37;;;;;;;17.15;11.25;;;;;;;-0.73;71.31;98424.55;1789210;80;21013;-64
2021/03/10 16:25:08;;;;;;;16.00;11.50;;;;;;;-0.78;71.49;98432.25;1789273;80;21092;-64
2021/03/10 16:27:35;;;;;;;14.30;10.53;;;;;;;-0.78;71.62;98432.78;1789057;80;21187;-61
2021/03/10 16:30:07;;;;;;;15.53;11.33;;;;;;;-0.80;71.65;98441.39;1762965;81;21121;-59
2021/03/10 16:32:34;;;;;;;14.70;11.43;;;;;;;-0.82;71.78;98431.06;1780497;80;21482;-58
2021/03/10 16:35:05;;;;;;;18.85;12.88;;;;;;;-0.88;71.91;98428.45;1780497;80;21449;-61
2021/03/10 16:37:36;;;;;;;18.10;13.05;;;;;;;-0.94;72.04;98429.27;1830963;78;20912;-64
2021/03/10 16:40:07;;;;;;;17.62;12.93;;;;;;;-0.94;72.23;98431.89;1830895;78;23146;-63
2021/03/10 16:42:35;;;;;;;20.35;12.70;;;;;;;-0.94;72.33;98435.34;1836827;77;21465;-63
2021/03/10 16:45:06;;;;;;;17.75;12.68;;;;;;;-0.93;72.40;98436.97;1768916;80;21584;-59
2021/03/10 16:47:36;;;;;;;19.52;13.65;;;;;;;-0.95;72.53;98442.12;1768596;80;21441;-59
2021/03/10 16:50:06;;;;;;;20.30;12.60;;;;;;;-0.96;72.58;98439.19;1758164;81;21108;-63
